createdAt,value
2018-05-03T00:00:26.355Z,5.2
2018-05-03T00:01:28.708Z,5.2
2018-05-03T00:02:31.350Z,5.2
2018-05-03T00:03:33.701Z,5.2
2018-05-03T00:04:36.056Z,5.2
2018-05-03T00:05:38.695Z,5.2
2018-05-03T00:06:41.338Z,5.2
2018-05-03T00:07:43.693Z,5.2
2018-05-03T00:08:46.053Z,5.2
2018-05-03T00:09:48.406Z,5.2
2018-05-03T00:10:50.762Z,5.2
2018-05-03T00:11:53.399Z,5.3
2018-05-03T00:12:55.761Z,5.3
2018-05-03T00:13:58.114Z,5.2
2018-05-03T00:15:00.756Z,5.3
2018-05-03T00:16:03.386Z,5.2
2018-05-03T00:17:05.741Z,5.2
2018-05-03T00:18:08.382Z,5.2
2018-05-03T00:19:10.739Z,5.2
2018-05-03T00:20:13.098Z,5.2
2018-05-03T00:21:15.454Z,5.3
2018-05-03T00:22:17.808Z,5.2
2018-05-03T00:23:20.166Z,5.2
2018-05-03T00:24:22.523Z,5.2
2018-05-03T00:25:25.260Z,5.2
2018-05-03T00:26:27.621Z,5.2
2018-05-03T00:27:29.978Z,5.1
2018-05-03T00:28:32.333Z,5.1
2018-05-03T00:29:34.703Z,5.2
2018-05-03T00:30:37.331Z,5.3
2018-05-03T00:31:39.688Z,5.2
2018-05-03T00:32:42.428Z,5.3
2018-05-03T00:33:44.783Z,5.1
2018-05-03T00:34:47.143Z,5.2
2018-05-03T00:35:49.779Z,5.2
2018-05-03T00:36:52.517Z,5.3
2018-05-03T00:37:54.874Z,5.3
2018-05-03T00:38:57.230Z,5.2
2018-05-03T00:39:59.586Z,5.2
2018-05-03T00:41:01.941Z,5.3
2018-05-03T00:42:04.314Z,5.2
2018-05-03T00:43:06.672Z,5.2
2018-05-03T00:44:09.030Z,5.3
2018-05-03T00:45:11.381Z,5.2
2018-05-03T00:46:13.739Z,5.2
2018-05-03T00:47:16.099Z,5.2
2018-05-03T00:48:18.452Z,5.2
2018-05-03T00:49:20.837Z,5.2
2018-05-03T00:50:23.473Z,5.3
2018-05-03T00:51:25.829Z,5.2
2018-05-03T00:52:28.465Z,5.2
2018-05-03T00:53:30.821Z,5.2
2018-05-03T00:54:33.178Z,5.2
2018-05-03T00:55:35.814Z,5.2
2018-05-03T00:56:38.168Z,5.1
2018-05-03T00:57:40.523Z,5.2
2018-05-03T00:58:42.883Z,5.2
2018-05-03T00:59:45.522Z,5.2
2018-05-03T01:00:47.879Z,5.2
2018-05-03T01:01:50.232Z,5.2
2018-05-03T01:02:52.589Z,5.2
2018-05-03T01:03:54.946Z,5.1
2018-05-03T01:04:57.608Z,5.2
2018-05-03T01:05:59.991Z,5.3
2018-05-03T01:07:02.369Z,5.3
2018-05-03T01:08:05.050Z,5.2
2018-05-03T01:09:07.421Z,5.2
2018-05-03T01:10:10.081Z,5.1
2018-05-03T01:11:12.472Z,5.2
2018-05-03T01:12:15.229Z,5.1
2018-05-03T01:13:18.009Z,5.1
2018-05-03T01:14:20.390Z,5.3
2018-05-03T01:15:22.768Z,5.2
2018-05-03T01:16:25.145Z,5.2
2018-05-03T01:17:27.531Z,5.3
2018-05-03T01:18:29.914Z,5.2
2018-05-03T01:19:32.301Z,5.2
2018-05-03T01:20:34.980Z,5.1
2018-05-03T01:21:37.646Z,5.1
2018-05-03T01:22:40.031Z,5.1
2018-05-03T01:23:42.409Z,5.1
2018-05-03T01:24:44.789Z,5.4
2018-05-03T01:25:47.840Z,5.2
2018-05-03T01:26:50.491Z,5.2
2018-05-03T01:27:53.195Z,5.2
2018-05-03T01:28:55.858Z,5.3
2018-05-03T01:29:58.248Z,5.2
2018-05-03T01:31:00.624Z,5.2
2018-05-03T01:32:03.397Z,5.1
2018-05-03T01:33:05.775Z,5.2
2018-05-03T01:34:08.165Z,5.2
2018-05-03T01:35:10.536Z,5.2
2018-05-03T01:36:12.927Z,5.2
2018-05-03T01:37:15.297Z,5.2
2018-05-03T01:38:17.992Z,5.2
2018-05-03T01:39:20.651Z,5.2
2018-05-03T01:40:23.313Z,5.2
2018-05-03T01:41:25.704Z,5.3
2018-05-03T01:42:28.083Z,5.1
2018-05-03T01:43:30.466Z,5.4
2018-05-03T01:44:32.859Z,5.2
2018-05-03T01:45:35.514Z,5.2
2018-05-03T01:46:37.897Z,5.2
2018-05-03T01:47:40.283Z,5.2
2018-05-03T01:48:42.663Z,5.2
2018-05-03T01:49:45.047Z,5.2
2018-05-03T01:50:47.420Z,5.3
2018-05-03T01:51:49.792Z,5.2
2018-05-03T01:52:52.191Z,5.2
2018-05-03T01:53:54.569Z,5.2
2018-05-03T01:54:56.949Z,5.2
2018-05-03T01:55:59.326Z,5.2
2018-05-03T01:57:01.717Z,5.3
2018-05-03T01:58:04.090Z,5.4
2018-05-03T01:59:06.472Z,5.2
2018-05-03T02:00:09.148Z,5.3
2018-05-03T02:01:11.522Z,5.2
2018-05-03T02:02:13.902Z,5.2
2018-05-03T02:03:16.556Z,5.2
2018-05-03T02:04:19.347Z,5.2
2018-05-03T02:05:21.703Z,5.2
2018-05-03T02:06:24.082Z,5.3
2018-05-03T02:07:26.842Z,5.3
2018-05-03T02:08:29.230Z,5.2
2018-05-03T02:09:32.193Z,5.2
2018-05-03T02:10:34.576Z,5.3
2018-05-03T02:11:36.960Z,5.2
2018-05-03T02:12:39.342Z,5.2
2018-05-03T02:13:42.008Z,5.2
2018-05-03T02:14:44.394Z,5.4
2018-05-03T02:15:47.086Z,5.3
2018-05-03T02:16:49.841Z,5.3
2018-05-03T02:17:52.224Z,5.4
2018-05-03T02:18:54.613Z,5.2
2018-05-03T02:19:56.983Z,5.3
2018-05-03T02:20:59.364Z,5.2
2018-05-03T02:22:01.753Z,5.2
2018-05-03T02:23:04.129Z,5.3
2018-05-03T02:24:06.524Z,5.3
2018-05-03T02:25:08.907Z,5.3
2018-05-03T02:26:11.280Z,5.2
2018-05-03T02:27:13.691Z,5.2
2018-05-03T02:28:16.069Z,5.2
2018-05-03T02:29:18.731Z,5.2
2018-05-03T02:30:21.402Z,5.2
2018-05-03T02:31:24.069Z,5.2
2018-05-03T02:32:26.446Z,5.3
2018-05-03T02:33:29.135Z,5.3
2018-05-03T02:34:31.943Z,5.2
2018-05-03T02:35:34.912Z,5.3
2018-05-03T02:36:37.300Z,5.3
2018-05-03T02:37:39.685Z,5.3
2018-05-03T02:38:42.068Z,5.2
2018-05-03T02:39:44.448Z,5.3
2018-05-03T02:40:46.826Z,5.2
2018-05-03T02:41:49.212Z,5.3
2018-05-03T02:42:51.886Z,5.2
2018-05-03T02:43:54.272Z,5.3
2018-05-03T02:44:56.649Z,5.3
2018-05-03T02:45:59.329Z,5.2
2018-05-03T02:47:02.009Z,5.3
2018-05-03T02:48:05.078Z,5.2
2018-05-03T02:49:07.772Z,5.3
2018-05-03T02:50:10.144Z,5.2
2018-05-03T02:51:12.532Z,5.2
2018-05-03T02:52:15.886Z,5.2
2018-05-03T02:53:18.553Z,5.3
2018-05-03T02:54:21.496Z,5.2
2018-05-03T02:55:23.881Z,5.2
2018-05-03T02:56:26.266Z,5.2
2018-05-03T02:57:29.867Z,5.2
2018-05-03T02:58:32.540Z,5.4
2018-05-03T02:59:34.929Z,5.2
2018-05-03T03:00:37.306Z,5.2
2018-05-03T03:01:40.069Z,5.2
2018-05-03T03:02:42.727Z,5.2
2018-05-03T03:03:45.109Z,5.3
2018-05-03T03:04:47.501Z,5.2
2018-05-03T03:05:50.495Z,5.3
2018-05-03T03:06:53.155Z,5.2
2018-05-03T03:07:55.838Z,5.2
2018-05-03T03:08:58.598Z,5.2
2018-05-03T03:10:01.264Z,5.2
2018-05-03T03:11:03.933Z,5.2
2018-05-03T03:12:06.308Z,5.2
2018-05-03T03:13:08.692Z,5.3
2018-05-03T03:14:11.066Z,5.3
2018-05-03T03:15:13.748Z,5.3
2018-05-03T03:16:16.126Z,5.2
2018-05-03T03:17:18.517Z,5.2
2018-05-03T03:18:20.892Z,5.2
2018-05-03T03:19:23.272Z,5.1
2018-05-03T03:20:25.659Z,5.2
2018-05-03T03:21:28.040Z,5.2
2018-05-03T03:22:30.705Z,5.2
2018-05-03T03:23:33.094Z,5.2
2018-05-03T03:24:35.501Z,5.2
2018-05-03T03:25:37.899Z,5.2
2018-05-03T03:26:40.267Z,5.2
2018-05-03T03:27:42.924Z,5.3
2018-05-03T03:28:45.312Z,5.3
2018-05-03T03:29:47.701Z,5.2
2018-05-03T03:30:50.077Z,5.2
2018-05-03T03:31:52.762Z,5.2
2018-05-03T03:32:55.411Z,5.2
2018-05-03T03:33:57.801Z,5.2
2018-05-03T03:35:00.464Z,5.1
2018-05-03T03:36:02.848Z,5.1
2018-05-03T03:37:05.589Z,5.1
2018-05-03T03:38:07.970Z,5.2
2018-05-03T03:39:10.347Z,5.2
2018-05-03T03:40:13.010Z,5.3
2018-05-03T03:41:15.972Z,5.3
2018-05-03T03:42:18.633Z,5.3
2018-05-03T03:43:21.008Z,5.3
2018-05-03T03:44:23.959Z,5.2
2018-05-03T03:45:26.334Z,5.2
2018-05-03T03:46:29.165Z,5.2
2018-05-03T03:47:31.547Z,5.1
2018-05-03T03:48:33.936Z,5.2
2018-05-03T03:49:36.611Z,5.3
2018-05-03T03:50:39.001Z,5.2
2018-05-03T03:51:41.759Z,5.4
2018-05-03T03:52:44.142Z,5.2
2018-05-03T03:53:46.524Z,5.2
2018-05-03T03:54:48.905Z,5.1
2018-05-03T03:55:51.284Z,5.1
2018-05-03T03:56:53.674Z,5.1
2018-05-03T03:57:56.065Z,5.2
2018-05-03T03:58:58.838Z,5.3
2018-05-03T04:00:01.201Z,5.3
2018-05-03T04:01:03.868Z,5.2
2018-05-03T04:02:06.247Z,5.2
2018-05-03T04:03:08.637Z,5.3
2018-05-03T04:04:11.005Z,5.1
2018-05-03T04:05:13.391Z,5.2
2018-05-03T04:06:16.059Z,5.2
2018-05-03T04:07:18.824Z,5.2
2018-05-03T04:08:21.482Z,5.2
2018-05-03T04:09:24.160Z,5.3
2018-05-03T04:10:26.831Z,5.3
2018-05-03T04:11:29.223Z,5.5
2018-05-03T04:12:31.601Z,5.2
2018-05-03T04:13:33.972Z,5.2
2018-05-03T04:14:36.364Z,5.2
2018-05-03T04:15:38.747Z,5.2
2018-05-03T04:16:41.132Z,5.2
2018-05-03T04:17:43.522Z,5.3
2018-05-03T04:18:46.582Z,5.2
2018-05-03T04:19:49.264Z,5.2
2018-05-03T04:20:51.935Z,5.3
2018-05-03T04:21:54.592Z,5.2
2018-05-03T04:22:56.969Z,5.3
2018-05-03T04:23:59.350Z,5.2
2018-05-03T04:25:01.746Z,5.3
2018-05-03T04:26:04.792Z,5.2
2018-05-03T04:27:07.459Z,5.2
2018-05-03T04:28:10.222Z,5.2
2018-05-03T04:29:12.604Z,5.3
2018-05-03T04:30:14.984Z,5.3
2018-05-03T04:31:17.369Z,5.3
2018-05-03T04:32:19.738Z,5.3
2018-05-03T04:33:22.427Z,5.3
2018-05-03T04:34:24.806Z,5.2
2018-05-03T04:35:27.191Z,5.3
2018-05-03T04:36:29.573Z,5.3
2018-05-03T04:37:32.240Z,5.2
2018-05-03T04:38:35.187Z,5.2
2018-05-03T04:39:37.962Z,5.3
2018-05-03T04:40:40.338Z,5.3
2018-05-03T04:41:42.726Z,5.2
2018-05-03T04:42:45.383Z,5.2
2018-05-03T04:43:47.764Z,5.2
2018-05-03T04:44:50.434Z,5.2
2018-05-03T04:45:53.107Z,5.2
2018-05-03T04:46:55.533Z,5.2
2018-05-03T04:47:57.867Z,5.3
2018-05-03T04:49:00.245Z,5.2
2018-05-03T04:50:03.287Z,5.3
2018-05-03T04:51:06.053Z,5.3
2018-05-03T04:52:08.460Z,5.3
2018-05-03T04:53:11.155Z,5.2
2018-05-03T04:54:13.592Z,5.2
2018-05-03T04:55:16.288Z,5.2
2018-05-03T04:56:18.675Z,5.1
2018-05-03T04:57:21.054Z,5.2
2018-05-03T04:58:23.713Z,5.2
2018-05-03T04:59:26.095Z,5.3
2018-05-03T05:00:28.483Z,5.3
2018-05-03T05:01:30.865Z,5.3
2018-05-03T05:02:33.253Z,5.2
2018-05-03T05:03:35.626Z,5.2
2018-05-03T05:04:38.311Z,5.3
2018-05-03T05:05:41.075Z,5.3
2018-05-03T05:06:43.463Z,5.3
2018-05-03T05:07:45.852Z,5.4
2018-05-03T05:08:48.228Z,5.4
2018-05-03T05:09:50.606Z,5.3
2018-05-03T05:10:53.009Z,5.2
2018-05-03T05:11:55.386Z,5.3
2018-05-03T05:12:57.770Z,5.3
2018-05-03T05:14:00.162Z,5.3
2018-05-03T05:15:02.539Z,5.4
2018-05-03T05:16:05.204Z,5.4
2018-05-03T05:17:07.595Z,5.3
2018-05-03T05:18:10.349Z,5.3
2018-05-03T05:19:12.730Z,5.3
2018-05-03T05:20:15.499Z,5.3
2018-05-03T05:21:17.892Z,5.3
2018-05-03T05:22:20.273Z,5.3
2018-05-03T05:23:22.659Z,5.4
2018-05-03T05:24:25.331Z,5.3
2018-05-03T05:25:27.710Z,5.4
2018-05-03T05:26:30.096Z,5.4
2018-05-03T05:27:32.477Z,5.3
2018-05-03T05:28:34.854Z,5.2
2018-05-03T05:29:37.256Z,5.7
2018-05-03T05:30:39.655Z,5.4
2018-05-03T05:31:43.033Z,5.4
2018-05-03T05:32:45.415Z,5.5
2018-05-03T05:33:47.799Z,5.4
2018-05-03T05:34:50.564Z,5.4
2018-05-03T05:35:52.955Z,5.3
2018-05-03T05:36:55.332Z,5.4
2018-05-03T05:37:58.277Z,5.2
2018-05-03T05:39:00.673Z,5.3
2018-05-03T05:40:03.053Z,5.3
2018-05-03T05:41:05.447Z,5.4
2018-05-03T05:42:07.822Z,5.4
2018-05-03T05:43:10.208Z,5.4
2018-05-03T05:44:13.050Z,5.3
2018-05-03T05:45:15.702Z,5.3
2018-05-03T05:46:18.092Z,5.3
2018-05-03T05:47:20.474Z,5.3
2018-05-03T05:48:23.816Z,5.4
2018-05-03T05:49:26.810Z,5.5
2018-05-03T05:50:29.480Z,5.5
2018-05-03T05:51:31.853Z,5.4
2018-05-03T05:52:34.242Z,5.3
2018-05-03T05:53:36.628Z,5.4
2018-05-03T05:54:38.996Z,5.3
2018-05-03T05:55:41.662Z,5.4
2018-05-03T05:56:44.066Z,5.2
2018-05-03T05:57:46.697Z,5.4
2018-05-03T05:58:49.370Z,5.3
2018-05-03T05:59:51.752Z,5.3
2018-05-03T06:00:54.145Z,5.4
2018-05-03T06:01:56.529Z,5.3
2018-05-03T06:02:58.905Z,5.3
2018-05-03T06:04:01.291Z,5.4
2018-05-03T06:05:03.951Z,5.3
2018-05-03T06:06:06.337Z,5.3
2018-05-03T06:07:08.987Z,5.3
2018-05-03T06:08:11.673Z,5.4
2018-05-03T06:09:14.337Z,5.4
2018-05-03T06:10:17.044Z,5.5
2018-05-03T06:11:19.387Z,5.4
2018-05-03T06:12:21.804Z,5.4
2018-05-03T06:13:24.537Z,5.4
2018-05-03T06:14:27.599Z,5.3
2018-05-03T06:15:29.980Z,5.3
2018-05-03T06:16:32.357Z,5.4
2018-05-03T06:17:35.033Z,5.4
2018-05-03T06:18:37.424Z,5.5
2018-05-03T06:19:40.762Z,5.4
2018-05-03T06:20:43.148Z,5.6
2018-05-03T06:21:45.919Z,5.6
2018-05-03T06:22:48.296Z,5.5
2018-05-03T06:23:51.064Z,5.5
2018-05-03T06:24:53.451Z,5.4
2018-05-03T06:25:56.145Z,5.4
2018-05-03T06:26:59.202Z,5.4
2018-05-03T06:28:01.588Z,5.4
2018-05-03T06:29:03.984Z,5.5
2018-05-03T06:30:06.365Z,5.4
2018-05-03T06:31:08.763Z,5.4
2018-05-03T06:32:11.143Z,5.5
2018-05-03T06:33:13.809Z,5.5
2018-05-03T06:34:16.191Z,5.4
2018-05-03T06:35:18.872Z,5.4
2018-05-03T06:36:21.253Z,5.5
2018-05-03T06:37:23.646Z,5.5
2018-05-03T06:38:26.309Z,5.5
2018-05-03T06:39:28.700Z,5.6
2018-05-03T06:40:31.393Z,5.5
2018-05-03T06:41:33.773Z,5.5
2018-05-03T06:42:36.447Z,5.5
2018-05-03T06:43:39.221Z,5.4
2018-05-03T06:44:41.601Z,5.6
2018-05-03T06:45:43.979Z,5.5
2018-05-03T06:46:46.371Z,5.6
2018-05-03T06:47:48.757Z,5.6
2018-05-03T06:48:51.420Z,5.5
2018-05-03T06:49:53.805Z,5.7
2018-05-03T06:50:56.457Z,5.6
2018-05-03T06:51:58.841Z,5.5
2018-05-03T06:53:01.254Z,5.5
2018-05-03T06:54:03.913Z,5.6
2018-05-03T06:55:06.292Z,5.6
2018-05-03T06:56:08.673Z,5.6
2018-05-03T06:57:11.066Z,5.6
2018-05-03T06:58:13.732Z,5.5
2018-05-03T06:59:16.690Z,5.6
2018-05-03T07:00:19.065Z,5.5
2018-05-03T07:01:21.448Z,5.5
2018-05-03T07:02:24.232Z,5.6
2018-05-03T07:03:26.618Z,5.5
2018-05-03T07:04:29.020Z,5.6
2018-05-03T07:05:31.784Z,5.6
2018-05-03T07:06:34.177Z,5.7
2018-05-03T07:07:36.846Z,5.6
2018-05-03T07:08:39.229Z,5.6
2018-05-03T07:09:41.896Z,5.6
2018-05-03T07:10:44.284Z,5.6
2018-05-03T07:11:46.687Z,5.6
2018-05-03T07:12:49.070Z,5.7
2018-05-03T07:13:51.472Z,5.7
2018-05-03T07:14:54.130Z,5.6
2018-05-03T07:15:56.522Z,5.6
2018-05-03T07:16:58.919Z,5.6
2018-05-03T07:18:01.307Z,5.6
2018-05-03T07:19:04.372Z,5.7
2018-05-03T07:20:06.753Z,5.6
2018-05-03T07:21:09.138Z,5.6
2018-05-03T07:22:11.525Z,5.6
2018-05-03T07:23:13.907Z,5.7
2018-05-03T07:24:16.710Z,5.6
2018-05-03T07:25:19.094Z,5.6
2018-05-03T07:26:21.477Z,5.7
2018-05-03T07:27:23.873Z,5.7
2018-05-03T07:28:26.259Z,5.6
2018-05-03T07:29:29.043Z,5.6
2018-05-03T07:30:31.324Z,5.6
2018-05-03T07:31:33.704Z,5.6
2018-05-03T07:32:36.092Z,5.8
2018-05-03T07:33:38.475Z,5.7
2018-05-03T07:34:40.866Z,5.7
2018-05-03T07:35:43.657Z,5.7
2018-05-03T07:36:46.043Z,5.7
2018-05-03T07:37:48.424Z,5.7
2018-05-03T07:38:50.815Z,5.7
2018-05-03T07:39:53.205Z,5.7
2018-05-03T07:40:55.938Z,5.8
2018-05-03T07:41:58.692Z,5.8
2018-05-03T07:43:01.363Z,5.6
2018-05-03T07:44:03.741Z,5.7
2018-05-03T07:45:06.135Z,5.8
2018-05-03T07:46:08.530Z,5.7
2018-05-03T07:47:10.907Z,5.6
2018-05-03T07:48:13.296Z,5.7
2018-05-03T07:49:15.677Z,5.7
2018-05-03T07:50:18.062Z,5.7
2018-05-03T07:51:20.756Z,5.7
2018-05-03T07:52:23.148Z,5.6
2018-05-03T07:53:25.546Z,5.7
2018-05-03T07:54:28.214Z,5.7
2018-05-03T07:55:30.608Z,5.7
2018-05-03T07:56:33.278Z,5.7
2018-05-03T07:57:35.658Z,5.6
2018-05-03T07:58:38.444Z,5.7
2018-05-03T07:59:40.827Z,5.7
2018-05-03T08:00:43.208Z,5.7
2018-05-03T08:01:45.600Z,5.7
2018-05-03T08:02:48.183Z,5.7
2018-05-03T08:03:50.854Z,5.7
2018-05-03T08:04:53.522Z,5.6
2018-05-03T08:05:55.910Z,5.7
2018-05-03T08:06:58.310Z,5.6
2018-05-03T08:08:00.705Z,5.7
2018-05-03T08:09:03.080Z,5.7
2018-05-03T08:10:05.473Z,5.8
2018-05-03T08:11:07.868Z,5.7
2018-05-03T08:12:10.251Z,5.7
2018-05-03T08:13:12.640Z,5.7
2018-05-03T08:14:15.021Z,5.6
2018-05-03T08:15:17.401Z,5.7
2018-05-03T08:16:19.804Z,5.8
2018-05-03T08:17:22.755Z,5.6
2018-05-03T08:18:25.138Z,5.7
2018-05-03T08:19:27.523Z,5.6
2018-05-03T08:20:29.915Z,5.6
2018-05-03T08:21:32.300Z,5.7
2018-05-03T08:22:34.691Z,5.8
2018-05-03T08:23:37.094Z,5.7
2018-05-03T08:24:39.483Z,5.7
2018-05-03T08:25:41.874Z,5.7
2018-05-03T08:26:44.259Z,5.6
2018-05-03T08:27:46.668Z,5.8
2018-05-03T08:28:49.060Z,5.7
2018-05-03T08:29:51.443Z,5.7
2018-05-03T08:30:53.823Z,5.7
2018-05-03T08:31:56.667Z,5.7
2018-05-03T08:32:59.058Z,5.7
2018-05-03T08:34:01.452Z,5.7
2018-05-03T08:35:03.835Z,5.7
2018-05-03T08:36:06.234Z,5.8
2018-05-03T08:37:08.618Z,5.7
2018-05-03T08:38:11.009Z,5.7
2018-05-03T08:39:13.788Z,5.7
2018-05-03T08:40:16.172Z,5.7
2018-05-03T08:41:18.554Z,5.7
2018-05-03T08:42:20.957Z,5.7
2018-05-03T08:43:23.350Z,5.6
2018-05-03T08:44:25.803Z,5.7
2018-05-03T08:45:28.529Z,5.7
2018-05-03T08:46:30.919Z,5.7
2018-05-03T08:47:33.597Z,5.7
2018-05-03T08:48:35.996Z,5.7
2018-05-03T08:49:38.696Z,5.9
2018-05-03T08:50:41.687Z,5.6
2018-05-03T08:51:44.075Z,5.9
2018-05-03T08:52:46.870Z,5.7
2018-05-03T08:53:49.250Z,5.7
2018-05-03T08:54:51.934Z,5.7
2018-05-03T08:55:54.318Z,5.8
2018-05-03T08:56:57.394Z,5.6
2018-05-03T08:57:59.870Z,5.8
2018-05-03T08:59:02.241Z,5.7
2018-05-03T09:00:04.634Z,5.7
2018-05-03T09:01:07.029Z,5.9
2018-05-03T09:02:09.691Z,5.7
2018-05-03T09:03:12.470Z,5.7
2018-05-03T09:04:14.868Z,5.7
2018-05-03T09:05:17.534Z,5.8
2018-05-03T09:06:19.932Z,5.7
2018-05-03T09:07:22.466Z,5.6
2018-05-03T09:08:24.848Z,5.7
2018-05-03T09:09:27.472Z,5.7
2018-05-03T09:10:30.433Z,5.7
2018-05-03T09:11:32.824Z,5.7
2018-05-03T09:12:35.431Z,5.7
2018-05-03T09:13:38.022Z,5.7
2018-05-03T09:14:40.443Z,5.7
2018-05-03T09:15:43.463Z,5.8
2018-05-03T09:16:45.896Z,5.7
2018-05-03T09:17:48.441Z,5.7
2018-05-03T09:18:51.200Z,5.7
2018-05-03T09:19:53.999Z,5.8
2018-05-03T09:20:56.422Z,5.8
2018-05-03T09:21:58.812Z,6
2018-05-03T09:23:01.193Z,5.9
2018-05-03T09:24:04.073Z,5.8
2018-05-03T09:25:07.797Z,5.8
2018-05-03T09:26:10.222Z,5.8
2018-05-03T09:27:12.869Z,5.7
2018-05-03T09:28:15.644Z,5.8
2018-05-03T09:29:18.495Z,5.9
2018-05-03T09:30:20.903Z,5.8
2018-05-03T09:31:23.912Z,5.8
2018-05-03T09:32:27.178Z,5.8
2018-05-03T09:33:29.859Z,5.9
2018-05-03T09:34:32.390Z,5.8
2018-05-03T09:35:34.790Z,5.8
2018-05-03T09:36:37.275Z,6
2018-05-03T09:37:39.709Z,6
2018-05-03T09:38:42.105Z,5.8
2018-05-03T09:39:44.522Z,5.8
2018-05-03T09:40:47.183Z,5.8
2018-05-03T09:41:49.588Z,5.9
2018-05-03T09:42:51.983Z,5.9
2018-05-03T09:43:54.385Z,5.9
2018-05-03T09:44:57.081Z,6
2018-05-03T09:45:59.762Z,5.9
2018-05-03T09:47:02.149Z,5.9
2018-05-03T09:48:04.539Z,5.9
2018-05-03T09:49:06.931Z,5.9
2018-05-03T09:50:09.327Z,5.9
2018-05-03T09:51:12.013Z,5.9
2018-05-03T09:52:14.418Z,5.9
2018-05-03T09:53:16.804Z,5.9
2018-05-03T09:54:19.200Z,5.9
2018-05-03T09:55:21.599Z,5.9
2018-05-03T09:56:23.996Z,5.9
2018-05-03T09:57:27.069Z,5.9
2018-05-03T09:58:29.850Z,6
2018-05-03T09:59:32.244Z,6
2018-05-03T10:00:35.020Z,6
2018-05-03T10:01:37.422Z,5.9
2018-05-03T10:02:40.390Z,5.9
2018-05-03T10:03:42.784Z,5.9
2018-05-03T10:04:45.211Z,6
2018-05-03T10:05:47.570Z,6
2018-05-03T10:06:49.970Z,6
2018-05-03T10:07:52.638Z,6
2018-05-03T10:08:55.039Z,6
2018-05-03T10:09:58.092Z,6
2018-05-03T10:11:00.495Z,6
2018-05-03T10:12:03.271Z,5.9
2018-05-03T10:13:05.670Z,6.1
2018-05-03T10:14:08.337Z,6
2018-05-03T10:15:10.725Z,5.9
2018-05-03T10:16:13.418Z,6
2018-05-03T10:17:15.807Z,6
2018-05-03T10:18:18.773Z,5.9
2018-05-03T10:19:21.163Z,5.9
2018-05-03T10:20:23.573Z,6
2018-05-03T10:21:25.953Z,5.9
2018-05-03T10:22:28.348Z,6.1
2018-05-03T10:23:30.747Z,6
2018-05-03T10:24:33.146Z,6
2018-05-03T10:25:35.819Z,5.9
2018-05-03T10:26:38.227Z,6
2018-05-03T10:27:40.608Z,6.1
2018-05-03T10:28:43.009Z,6
2018-05-03T10:29:45.408Z,6
2018-05-03T10:30:47.798Z,6
2018-05-03T10:31:50.205Z,6
2018-05-03T10:32:52.592Z,6
2018-05-03T10:33:54.988Z,6
2018-05-03T10:34:57.391Z,6
2018-05-03T10:36:00.293Z,6
2018-05-03T10:37:03.333Z,6
2018-05-03T10:38:06.058Z,6
2018-05-03T10:39:08.466Z,6
2018-05-03T10:40:11.131Z,6
2018-05-03T10:41:13.530Z,6.1
2018-05-03T10:42:16.756Z,6.1
2018-05-03T10:43:19.105Z,6
2018-05-03T10:44:21.496Z,6
2018-05-03T10:45:23.893Z,6.2
2018-05-03T10:46:26.286Z,6.1
2018-05-03T10:47:28.689Z,6
2018-05-03T10:48:31.095Z,6.2
2018-05-03T10:49:33.491Z,6.1
2018-05-03T10:50:35.889Z,6
2018-05-03T10:51:38.295Z,6
2018-05-03T10:52:40.693Z,6.1
2018-05-03T10:53:43.086Z,6.1
2018-05-03T10:54:45.489Z,6.1
2018-05-03T10:55:48.186Z,6.1
2018-05-03T10:56:50.579Z,6.1
2018-05-03T10:57:52.978Z,6.2
2018-05-03T10:58:55.942Z,6.3
2018-05-03T10:59:58.616Z,6.2
2018-05-03T11:01:01.315Z,6.2
2018-05-03T11:02:04.096Z,6.1
2018-05-03T11:03:06.765Z,6.2
2018-05-03T11:04:09.167Z,6.2
2018-05-03T11:05:11.945Z,6.1
2018-05-03T11:06:14.279Z,6.2
2018-05-03T11:07:16.971Z,6.2
2018-05-03T11:08:19.372Z,6.4
2018-05-03T11:09:21.766Z,6.2
2018-05-03T11:10:24.170Z,6.2
2018-05-03T11:11:26.559Z,6.3
2018-05-03T11:12:28.959Z,6.2
2018-05-03T11:13:31.356Z,6.3
2018-05-03T11:14:33.746Z,6.3
2018-05-03T11:15:36.454Z,6.2
2018-05-03T11:16:38.934Z,6.3
2018-05-03T11:17:41.254Z,6.3
2018-05-03T11:18:43.658Z,6.2
2018-05-03T11:19:46.059Z,6.3
2018-05-03T11:20:48.739Z,6.2
2018-05-03T11:21:51.144Z,6.3
2018-05-03T11:22:53.542Z,6.3
2018-05-03T11:23:55.949Z,6.3
2018-05-03T11:24:58.630Z,6.3
2018-05-03T11:26:01.180Z,6.2
2018-05-03T11:27:03.815Z,6.2
2018-05-03T11:28:06.221Z,6.2
2018-05-03T11:29:08.903Z,6.1
2018-05-03T11:30:11.298Z,6.2
2018-05-03T11:31:13.704Z,6.2
2018-05-03T11:32:16.391Z,6.3
2018-05-03T11:33:18.783Z,6.2
2018-05-03T11:34:21.472Z,6.2
2018-05-03T11:35:23.862Z,6.2
2018-05-03T11:36:26.837Z,6.2
2018-05-03T11:37:29.237Z,6.1
2018-05-03T11:38:31.635Z,6.2
2018-05-03T11:39:34.321Z,6.2
2018-05-03T11:40:36.722Z,6.1
2018-05-03T11:41:39.121Z,6.1
2018-05-03T11:42:41.518Z,6.1
2018-05-03T11:43:44.517Z,6.1
2018-05-03T11:44:47.193Z,6.1
2018-05-03T11:45:50.146Z,6.2
2018-05-03T11:46:52.828Z,6.1
2018-05-03T11:47:55.229Z,6.1
2018-05-03T11:48:57.897Z,6.1
2018-05-03T11:50:00.291Z,6.2
2018-05-03T11:51:02.704Z,6.1
2018-05-03T11:52:05.378Z,6.1
2018-05-03T11:53:07.771Z,6.1
2018-05-03T11:54:10.175Z,6.2
2018-05-03T11:55:12.568Z,6.1
2018-05-03T11:56:14.964Z,6.1
2018-05-03T11:57:17.751Z,6.2
2018-05-03T11:58:20.138Z,6.1
2018-05-03T11:59:22.989Z,6.1
2018-05-03T12:00:25.756Z,6.1
2018-05-03T12:01:28.450Z,6.2
2018-05-03T12:02:30.877Z,6.2
2018-05-03T12:03:33.262Z,6.2
2018-05-03T12:04:35.947Z,6.3
2018-05-03T12:05:38.353Z,6.2
2018-05-03T12:06:40.752Z,6.1
2018-05-03T12:07:43.155Z,6.2
2018-05-03T12:08:45.832Z,6.1
2018-05-03T12:09:48.231Z,6.2
2018-05-03T12:10:50.632Z,6.1
2018-05-03T12:11:53.511Z,6.2
2018-05-03T12:12:56.196Z,6.3
2018-05-03T12:13:58.873Z,6.3
2018-05-03T12:15:01.274Z,6.3
2018-05-03T12:16:04.052Z,6.2
2018-05-03T12:17:06.438Z,6.2
2018-05-03T12:18:09.121Z,6.2
2018-05-03T12:19:11.521Z,6.2
2018-05-03T12:20:13.925Z,6.2
2018-05-03T12:21:16.327Z,6.2
2018-05-03T12:22:18.731Z,6.3
2018-05-03T12:23:21.136Z,6.2
2018-05-03T12:24:23.586Z,6.3
2018-05-03T12:25:25.937Z,6.2
2018-05-03T12:26:28.343Z,6.3
2018-05-03T12:27:31.041Z,6.3
2018-05-03T12:28:33.735Z,6.4
2018-05-03T12:29:36.131Z,6.3
2018-05-03T12:30:38.526Z,6.3
2018-05-03T12:31:40.933Z,6.3
2018-05-03T12:32:43.327Z,6.3
2018-05-03T12:33:46.122Z,6.4
2018-05-03T12:34:48.610Z,6.3
2018-05-03T12:35:51.333Z,6.5
2018-05-03T12:36:54.017Z,6.3
2018-05-03T12:37:56.421Z,6.3
2018-05-03T12:38:58.816Z,6.5
2018-05-03T12:40:01.218Z,6.4
2018-05-03T12:41:03.999Z,6.5
2018-05-03T12:42:06.697Z,6.3
2018-05-03T12:43:09.106Z,6.3
2018-05-03T12:44:11.809Z,6.3
2018-05-03T12:45:14.199Z,6.5
2018-05-03T12:46:16.604Z,7.1
2018-05-03T12:47:19.009Z,6.6
2018-05-03T12:48:21.410Z,6.3
2018-05-03T12:49:23.810Z,6.6
2018-05-03T12:50:26.510Z,6.3
2018-05-03T12:51:29.185Z,6.6
2018-05-03T12:52:31.582Z,6.7
2018-05-03T12:53:33.984Z,6.6
2018-05-03T12:54:36.377Z,6.8
2018-05-03T12:55:39.675Z,6.6
2018-05-03T12:56:42.164Z,6.3
2018-05-03T12:57:44.880Z,6.4
2018-05-03T12:58:47.286Z,6.6
2018-05-03T12:59:49.690Z,6.2
2018-05-03T13:00:52.174Z,6.6
2018-05-03T13:01:54.495Z,7
2018-05-03T13:02:56.894Z,6.3
2018-05-03T13:03:59.302Z,6.6
2018-05-03T13:05:01.715Z,6.3
2018-05-03T13:06:04.117Z,6.4
2018-05-03T13:07:06.508Z,6.3
2018-05-03T13:08:09.287Z,6.4
2018-05-03T13:09:11.702Z,6.7
2018-05-03T13:10:14.482Z,6.3
2018-05-03T13:11:17.158Z,6.3
2018-05-03T13:12:19.839Z,6.3
2018-05-03T13:13:22.240Z,6.4
2018-05-03T13:14:24.645Z,6.3
2018-05-03T13:15:27.084Z,6.5
2018-05-03T13:16:29.495Z,6.3
2018-05-03T13:17:32.500Z,6.3
2018-05-03T13:18:35.189Z,6.4
2018-05-03T13:19:38.068Z,6.6
2018-05-03T13:20:40.751Z,6.4
2018-05-03T13:21:43.150Z,6.3
2018-05-03T13:22:45.787Z,6.7
2018-05-03T13:23:48.773Z,6.6
2018-05-03T13:24:51.505Z,6.7
2018-05-03T13:25:54.425Z,7.1
2018-05-03T13:26:56.968Z,7.2
2018-05-03T13:27:59.485Z,6.3
2018-05-03T13:29:01.956Z,6.8
2018-05-03T13:30:04.858Z,6.8
2018-05-03T13:31:07.309Z,6.8
2018-05-03T13:32:10.374Z,6.7
2018-05-03T13:33:13.192Z,6.8
2018-05-03T13:34:15.810Z,6.4
2018-05-03T13:35:18.273Z,6.6
2018-05-03T13:36:21.001Z,7.2
2018-05-03T13:37:23.659Z,6.6
2018-05-03T13:38:26.543Z,6.5
2018-05-03T13:39:29.413Z,6.5
2018-05-03T13:40:32.179Z,6.8
2018-05-03T13:41:35.421Z,6.7
2018-05-03T13:42:37.879Z,6.9
2018-05-03T13:43:40.484Z,6.7
2018-05-03T13:44:42.988Z,6.3
2018-05-03T13:45:45.908Z,7
2018-05-03T13:46:48.350Z,6.8
2018-05-03T13:47:51.126Z,7
2018-05-03T13:48:53.538Z,6.8
2018-05-03T13:49:56.512Z,6.6
2018-05-03T13:50:59.548Z,7.1
2018-05-03T13:52:02.471Z,7.3
2018-05-03T13:53:04.871Z,6.9
2018-05-03T13:54:07.451Z,6.4
2018-05-03T13:55:09.902Z,6.7
2018-05-03T13:56:12.531Z,6.7
2018-05-03T13:57:15.157Z,6.4
2018-05-03T13:58:18.307Z,6.8
2018-05-03T13:59:20.795Z,7
2018-05-03T14:00:23.393Z,6.4
2018-05-03T14:01:25.798Z,7.3
2018-05-03T14:02:28.567Z,7.1
2018-05-03T14:03:31.024Z,6.9
2018-05-03T14:04:33.473Z,6.8
2018-05-03T14:05:35.911Z,6.8
2018-05-03T14:06:38.629Z,7.1
2018-05-03T14:07:41.394Z,6.9
2018-05-03T14:08:44.477Z,6.8
2018-05-03T14:09:46.929Z,7
2018-05-03T14:10:49.383Z,6.9
2018-05-03T14:11:51.847Z,6.7
2018-05-03T14:12:54.615Z,6.5
2018-05-03T14:13:57.359Z,6.8
2018-05-03T14:14:59.836Z,6.7
2018-05-03T14:16:02.294Z,7.1
2018-05-03T14:17:05.039Z,6.9
2018-05-03T14:18:07.499Z,6.8
2018-05-03T14:19:11.045Z,7.1
2018-05-03T14:20:13.750Z,7
2018-05-03T14:21:16.192Z,6.9
2018-05-03T14:22:18.662Z,6.8
2018-05-03T14:23:21.119Z,6.8
2018-05-03T14:24:23.574Z,6.8